Latest Weather Observations for Beaudesert AWS

IDQ60801

Issued at 1:22 pm EST Tuesday 29 September 2020 (issued every 10 minutes, with the page automatically refreshed every 10 minutes)

About weather observations | Map of weather stations | Latest weather observations for QLD | Other Formats
Station Details ID: 040983 Name: BEAUDESERT DRUMLEY STREET Lat: -27.97 Lon: 152.99 Height: 47.81 m
Data from the previous 72 hours. | See also: Recent months at Beaudesert AWS
Date/Time
EST
Temp
°C
App
Temp
°C
Dew
Point
°C
Rel
Hum
%
Delta-T
°C
Wind Press
QNH
hPa
Press
MSL
hPa
Rain since
9am
mm
Dir  Spd
km/h
Gust
km/h
Spd
kts
Gust
kts
29/01:00pm 23.0 20.6 8.7 40 7.6 NE 11 20 6 11 1022.7 1022.7 0.0
29/12:30pm 22.4 18.9 8.9 42 7.2 E 17 28 9 15 1023.3 1023.2 0.0
29/12:00pm 21.9 20.4 8.4 42 7.1 ESE 6 11 3 6 1023.7 1023.6 0.0
29/11:30am 22.2 20.8 9.0 43 7.1 NNW 6 11 3 6 1024.2 1024.1 0.0
29/11:00am 20.9 19.7 8.2 44 6.6 N 4 9 2 5 1024.8 1024.7 0.0
29/10:30am 20.9 19.5 8.9 46 6.4 SE 6 9 3 5 1025.4 1025.3 0.0
29/10:00am 21.1 19.7 9.4 47 6.2 ESE 7 15 4 8 1025.6 1025.5 0.0
29/09:30am 19.8 17.2 9.4 51 5.5 SSE 13 19 7 10 1026.0 1025.9 0.0
29/09:00am 20.0 18.3 9.9 52 5.4 ESE 9 17 5 9 1026.1 1026.0 0.0
29/08:30am 18.8 17.3 10.4 58 4.5 WSW 9 15 5 8 1026.3 1026.2 0.0
29/08:00am 17.8 16.8 10.9 64 3.7 SW 7 13 4 7 1026.2 1026.1 0.0
29/07:30am 15.0 14.1 10.8 76 2.2 SSE 6 7 3 4 1025.6 1025.5 0.0
29/07:00am 12.3 11.6 9.9 85 1.2 SSE 4 6 2 3 1025.6 1025.5 0.0
29/06:30am 10.8 10.5 10.0 95 0.4 S 2 6 1 3 1025.0 1024.9 0.0
29/06:00am 9.2 8.3 9.1 99 0.0 S 4 4 2 2 1024.5 1024.4 0.0
29/05:30am 8.7 8.3 8.3 97 0.2 CALM 0 0 0 0 1023.9 1023.8 0.0
29/05:00am 8.9 8.2 8.5 97 0.2 S 2 4 1 2 1023.7 1023.6 0.0
29/04:30am 9.4 8.7 8.6 95 0.4 S 2 4 1 2 1023.5 1023.4 0.0
29/04:00am 9.6 9.4 9.0 96 0.3 CALM 0 2 0 1 1023.5 1023.4 0.0
29/03:30am 9.8 9.7 9.5 98 0.1 CALM 0 2 0 1 1023.7 1023.6 0.0
29/03:00am 9.3 9.2 9.3 100 0.0 CALM 0 2 0 1 1023.8 1023.7 0.0
29/02:30am 8.1 7.5 7.3 95 0.4 CALM 0 0 0 0 1023.9 1023.8 0.0
29/02:00am 9.7 9.5 9.1 96 0.3 CALM 0 2 0 1 1023.9 1023.8 0.0
29/01:30am 9.0 8.5 7.8 92 0.6 CALM 0 4 0 2 1024.2 1024.1 0.0
29/01:00am 10.6 10.1 9.5 93 0.5 SSE 2 6 1 3 1024.6 1024.5 0.0
29/12:30am 10.5 9.3 9.6 94 0.5 SSE 6 7 3 4 1025.0 1024.9 0.0
29/12:00am 10.9 10.9 9.8 93 0.6 CALM 0 0 0 0 1025.1 1025.0 0.0
 
Date/Time
EST
Temp
°C
App
Temp
°C
Dew
Point
°C
Rel
Hum
%
Delta-T
°C
Wind Press
QNH
hPa
Press
MSL
hPa
Rain since
9am
mm
Dir  Spd
km/h
Gust
km/h
Spd
kts
Gust
kts
28/11:30pm 10.9 10.9 9.8 93 0.6 CALM 0 2 0 1 1025.1 1025.0 0.0
28/11:00pm 10.9 10.9 9.7 92 0.6 CALM 0 0 0 0 1025.2 1025.1 0.0
28/10:30pm 10.7 10.2 9.3 91 0.7 SSE 2 4 1 2 1025.2 1025.1 0.0
28/10:00pm 10.7 10.4 8.6 87 1.0 CALM 0 0 0 0 1025.3 1025.2 0.0
28/09:30pm 11.5 10.9 9.1 85 1.2 SSE 2 4 1 2 1025.3 1025.2 0.0
28/09:00pm 12.0 11.9 9.4 84 1.3 CALM 0 0 0 0 1025.5 1025.4 0.0
28/08:30pm 12.5 12.4 9.3 81 1.6 CALM 0 0 0 0 1025.6 1025.5 0.0
28/08:00pm 13.4 12.8 8.9 74 2.3 SSE 2 6 1 3 1025.3 1025.2 0.0
28/07:30pm 15.2 13.9 9.8 70 2.8 ESE 7 11 4 6 1025.0 1024.9 0.0
28/07:00pm 15.6 14.3 9.9 69 3.0 ESE 7 15 4 8 1024.6 1024.5 0.0
28/06:30pm 15.9 14.6 10.0 68 3.1 ESE 7 13 4 7 1024.2 1024.1 0.0
28/06:00pm 16.7 14.3 10.1 65 3.5 ESE 13 20 7 11 1023.8 1023.7 0.0
28/05:30pm 17.8 15.2 10.7 63 3.8 ESE 15 22 8 12 1023.3 1023.2 0.0
28/05:00pm 18.3 15.7 10.7 61 4.1 E 15 26 8 14 1022.7 1022.7 0.0
28/04:30pm 18.9 16.0 11.0 60 4.3 ESE 17 28 9 15 1022.3 1022.3 0.0
28/04:00pm 20.0 17.3 10.4 54 5.2 E 15 26 8 14 1021.8 1021.7 0.0
28/03:30pm 21.0 19.2 10.8 52 5.6 E 11 22 6 12 1021.5 1021.4 0.0
28/03:00pm 21.1 18.3 10.0 49 6.0 E 15 26 8 14 1021.7 1021.6 0.0
28/02:30pm 21.8 18.0 9.0 44 6.8 E 19 28 10 15 1021.6 1021.5 0.0
28/02:00pm 23.3 21.0 10.4 44 7.1 NE 13 20 7 11 1021.6 1021.5 0.0
28/01:30pm 22.6 20.0 9.4 43 7.1 E 13 22 7 12 1022.0 1021.9 0.0
28/01:00pm 22.9 21.2 10.0 44 7.0 NE 9 17 5 9 1022.3 1022.3 0.0
28/12:30pm 22.5 20.1 8.6 41 7.4 ESE 11 17 6 9 1022.7 1022.7 0.0
28/12:00pm 23.7 22.3 8.9 39 7.9 NW 6 11 3 6 1023.2 1023.1 0.0
28/11:30am 23.5 21.8 9.9 42 7.4 NE 9 17 5 9 1024.0 1023.9 0.0
28/11:00am 22.3 21.5 9.5 44 6.9 WNW 4 9 2 5 1024.6 1024.5 0.0
28/10:30am 20.3 19.3 8.9 48 6.0 WSW 4 7 2 4 1025.0 1024.9 0.0
28/10:00am 21.5 20.1 8.7 44 6.7 N 6 9 3 5 1025.2 1025.1 0.0
28/09:30am 20.3 18.4 9.2 49 5.9 S 9 15 5 8 1025.6 1025.5 0.0
28/09:00am 19.4 17.9 9.0 51 5.4 SW 7 15 4 8 1025.7 1025.6 0.0
28/08:30am 19.0 17.3 10.0 56 4.8 SW 9 17 5 9 1025.8 1025.7 0.0
28/08:00am 16.3 15.0 9.3 63 3.6 SW 6 9 3 5 1025.7 1025.6 0.0
28/07:30am 13.4 12.5 9.1 75 2.2 SSW 4 6 2 3 1025.5 1025.4 0.0
28/07:00am 10.3 9.9 8.1 86 1.1 CALM 0 0 0 0 1025.3 1025.2 0.0
28/06:30am 8.3 7.7 7.5 95 0.4 CALM 0 0 0 0 1025.0 1024.9 0.0
28/06:00am 6.4 4.7 6.0 97 0.2 SE 4 6 2 3 1024.8 1024.7 0.0
28/05:30am 5.9 4.3 4.5 91 0.6 SE 2 2 1 1 1024.3 1024.2 0.0
28/05:00am 7.8 7.0 6.6 92 0.5 CALM 0 0 0 0 1023.9 1023.8 0.0
28/04:30am 8.0 6.9 6.8 92 0.6 SSE 2 6 1 3 1023.5 1023.4 0.0
28/04:00am 7.5 6.7 6.4 93 0.5 CALM 0 0 0 0 1023.5 1023.4 0.0
28/03:30am 7.6 6.8 6.7 94 0.4 CALM 0 0 0 0 1023.3 1023.2 0.0
28/03:00am 7.6 6.8 6.5 93 0.5 CALM 0 0 0 0 1023.4 1023.3 0.0
28/02:30am 6.7 5.5 4.5 86 1.0 CALM 0 0 0 0 1023.6 1023.5 0.0
28/02:00am 9.4 8.1 6.1 80 1.5 SSE 2 4 1 2 1023.8 1023.7 0.0
28/01:30am 9.7 8.4 6.2 79 1.6 SSE 2 4 1 2 1024.1 1024.0 0.0
28/01:00am 10.1 9.3 6.4 78 1.7 CALM 0 2 0 1 1024.1 1024.0 0.0
28/12:30am 10.4 9.3 6.9 79 1.7 S 2 6 1 3 1024.4 1024.3 0.0
28/12:00am 9.7 8.7 5.7 76 1.8 CALM 0 0 0 0 1024.5 1024.4 0.0
 
Date/Time
EST
Temp
°C
App
Temp
°C
Dew
Point
°C
Rel
Hum
%
Delta-T
°C
Wind Press
QNH
hPa
Press
MSL
hPa
Rain since
9am
mm
Dir  Spd
km/h
Gust
km/h
Spd
kts
Gust
kts
27/11:30pm 10.6 9.7 6.2 74 2.1 CALM 0 0 0 0 1024.5 1024.4 0.0
27/11:00pm 11.1 10.3 6.6 74 2.1 CALM 0 0 0 0 1024.6 1024.5 0.0
27/10:30pm 11.3 10.5 6.6 73 2.2 CALM 0 2 0 1 1024.5 1024.4 0.0
27/10:00pm 11.4 10.6 6.7 73 2.2 CALM 0 0 0 0 1024.3 1024.2 0.0
27/09:30pm 10.8 9.8 5.8 71 2.3 CALM 0 0 0 0 1023.9 1023.8 0.0
27/09:00pm 12.3 11.4 5.9 65 3.0 CALM 0 0 0 0 1023.6 1023.5 0.0
27/08:30pm 13.3 11.6 5.7 60 3.6 SSW 4 6 2 3 1023.2 1023.1 0.0
27/08:00pm 15.6 13.5 6.6 55 4.4 ESE 7 11 4 6 1022.6 1022.6 0.0
27/07:30pm 16.0 13.5 6.4 53 4.7 ESE 9 13 5 7 1022.0 1021.9 0.0
27/07:00pm 16.3 14.2 5.9 50 5.0 E 6 15 3 8 1021.5 1021.4 0.0
27/06:30pm 16.8 14.5 5.7 48 5.4 E 7 20 4 11 1020.7 1020.6 0.0
27/06:00pm 17.5 14.2 4.5 42 6.2 ENE 11 19 6 10 1020.2 1020.1 0.0
27/05:30pm 18.9 15.6 2.7 34 7.5 ENE 9 22 5 12 1019.5 1019.4 0.0
27/05:00pm 20.4 16.3 2.3 30 8.4 E 13 22 7 12 1018.9 1018.8 0.0
27/04:30pm 21.7 17.3 2.9 29 8.9 ENE 15 28 8 15 1018.4 1018.3 0.0
27/04:00pm 23.0 18.2 2.5 26 9.7 ENE 17 28 9 15 1017.8 1017.7 0.0
27/03:30pm 23.5 18.7 2.4 25 10.1 ENE 17 26 9 14 1017.6 1017.5 0.0
27/03:00pm 25.4 22.2 -3.1 15 12.4 NE 4 7 2 4 1017.4 1017.3 0.0
27/02:30pm 25.7 21.8 -4.7 13 12.9 NNW 7 15 4 8 1017.6 1017.5 0.0
27/02:00pm 25.4 21.8 -4.0 14 12.6 NNW 6 13 3 7 1017.8 1017.7 0.0
27/01:30pm 25.0 21.5 -1.7 17 11.9 SE 7 13 4 7 1018.2 1018.1 0.0
27/01:00pm 24.0 20.4 -3.3 16 11.7 NE 6 11 3 6 1018.8 1018.7 0.0
27/12:30pm 24.8 22.3 -1.1 18 11.7 NE 2 6 1 3 1019.2 1019.1 0.0
27/12:00pm 23.2 19.7 -1.7 19 10.9 S 7 15 4 8 1019.6 1019.5 0.0
27/11:30am 22.7 19.1 -2.1 19 10.8 S 7 15 4 8 1020.3 1020.2 0.0
27/11:00am - - - - - S 9 17 5 9 1020.8 1020.7 0.0
27/10:30am - - - - - ESE 6 13 3 7 1021.3 1021.2 0.0
27/10:00am - - - - - SW 11 17 6 9 1021.6 1021.5 0.0
27/09:30am 19.6 15.1 -0.4 26 8.7 SW 13 24 7 13 1021.9 1021.8 0.0
27/09:00am 18.8 13.4 -1.1 26 8.5 SW 17 24 9 13 1022.1 1022.0 0.0
27/08:30am 17.5 13.6 -1.2 28 7.9 SSW 9 19 5 10 1022.1 1022.0 0.0
27/08:00am 13.7 11.8 2.6 47 4.9 SSW 2 4 1 2 1021.9 1021.8 0.0
27/07:30am 10.2 8.5 2.1 57 3.4 CALM 0 0 0 0 1021.8 1021.7 0.0
27/07:00am 6.8 4.6 1.1 67 2.3 SSE 2 4 1 2 1021.4 1021.3 0.0
27/06:30am 5.0 3.3 2.0 81 1.2 CALM 0 2 0 1 1021.1 1021.0 0.0
27/06:00am 3.5 1.5 0.2 79 1.2 CALM 0 2 0 1 1020.8 1020.7 0.0
27/05:30am 2.6 0.5 -0.5 80 1.1 CALM 0 2 0 1 1020.5 1020.4 0.0
27/05:00am 3.7 1.7 -0.1 76 1.4 CALM 0 0 0 0 1020.1 1020.0 0.0
27/04:30am 4.3 2.0 0.1 74 1.6 ESE 2 4 1 2 1019.6 1019.5 0.0
27/04:00am 4.4 1.3 0.4 75 1.5 ESE 6 7 3 4 1019.3 1019.2 0.0
27/03:30am 4.0 2.0 0.2 76 1.4 CALM 0 4 0 2 1019.1 1019.0 0.0
27/03:00am 4.3 2.5 1.2 80 1.2 CALM 0 4 0 2 1019.1 1019.0 0.0
27/02:30am 3.4 1.4 0.1 79 1.2 CALM 0 0 0 0 1019.0 1018.9 0.0
27/02:00am 5.6 3.3 0.6 70 1.9 ESE 2 4 1 2 1019.1 1019.0 0.0
27/01:30am 6.6 4.3 0.3 64 2.5 SE 2 4 1 2 1019.2 1019.1 0.0
27/01:00am 5.5 3.5 -0.3 66 2.2 CALM 0 0 0 0 1019.5 1019.4 0.0
27/12:30am 8.2 5.0 0.9 60 2.9 E 7 13 4 7 1019.7 1019.6 0.0
27/12:00am 6.5 3.9 1.2 69 2.1 S 4 6 2 3 1019.7 1019.6 0.0
 
Date/Time
EST
Temp
°C
App
Temp
°C
Dew
Point
°C
Rel
Hum
%
Delta-T
°C
Wind Press
QNH
hPa
Press
MSL
hPa
Rain since
9am
mm
Dir  Spd
km/h
Gust
km/h
Spd
kts
Gust
kts
26/11:30pm 5.8 3.9 0.8 70 2.0 CALM 0 6 0 3 1019.9 1019.8 0.0
26/11:00pm 7.2 5.2 0.2 61 2.7 CALM 0 0 0 0 1019.9 1019.8 0.0
26/10:30pm 9.6 6.9 0.2 52 3.8 NNE 4 6 2 3 1019.7 1019.6 0.0
26/10:00pm 8.6 6.6 -0.4 53 3.5 CALM 0 0 0 0 1019.7 1019.6 0.0
26/09:30pm 11.1 9.0 -1.0 43 4.8 CALM 0 0 0 0 1019.3 1019.2 0.0
26/09:00pm 13.1 10.7 -0.5 39 5.6 WNW 2 4 1 2 1019.1 1019.0 0.0
26/08:30pm 12.9 9.5 -2.2 35 6.0 W 6 7 3 4 1018.8 1018.7 0.0
26/08:00pm 15.1 12.4 -2.8 29 7.1 W 2 6 1 3 1018.4 1018.3 0.0
26/07:30pm 16.4 12.8 -2.1 28 7.6 W 7 9 4 5 1017.7 1017.6 0.0
26/07:00pm 16.2 13.1 -2.8 27 7.6 W 4 7 2 4 1017.1 1017.0 0.0
26/06:30pm 17.4 13.0 -2.8 25 8.2 W 11 13 6 7 1016.1 1016.0 0.0
26/06:00pm 18.6 14.9 -2.9 23 8.8 W 7 11 4 6 1015.5 1015.4 0.0
26/05:30pm 20.4 16.4 -2.6 21 9.7 WSW 9 15 5 8 1014.7 1014.6 0.0
26/05:00pm 21.9 16.2 -3.5 18 10.7 W 17 26 9 14 1014.0 1013.9 0.0
26/04:30pm 22.9 17.2 -3.4 17 11.2 WSW 17 26 9 14 1013.6 1013.5 0.0
26/04:00pm 23.2 17.5 -4.0 16 11.4 WSW 17 30 9 16 1013.3 1013.2 0.0
26/03:30pm 23.7 17.4 -4.4 15 11.8 WSW 20 35 11 19 1012.9 1012.8 0.0
26/03:00pm 23.8 17.7 -3.5 16 11.7 WSW 19 30 10 16 1012.7 1012.6 0.0
26/02:30pm 23.8 17.2 -3.5 16 11.7 W 22 39 12 21 1012.6 1012.5 0.0
26/02:00pm 23.5 16.9 -2.9 17 11.4 W 22 37 12 20 1012.8 1012.7 0.0
26/01:30pm 23.5 17.1 -1.4 19 11.0 WNW 22 35 12 19 1013.1 1013.0 0.0

Other formats

Comma delimited format used in spreadsheet applications
http://www.bom.gov.au/fwo/IDQ60801/IDQ60801.95575.axf

JavaScript Object Notation format (JSON) in row-major order
http://www.bom.gov.au/fwo/IDQ60801/IDQ60801.95575.json

Data quality

Most of these data are generated automatically and are frequently updated. Quality checks on data are not normally performed. It is possible for incorrect values to appear. Refer to information at About Latest Weather Observations and please check the disclaimer before using these data.